createdAt,value
2022-12-11T00:00:53.237Z,31.92
2022-12-11T00:03:20.407Z,31.45
2022-12-11T00:05:48.117Z,28.00
2022-12-11T00:08:15.726Z,30.85
2022-12-11T00:10:50.074Z,30.70
2022-12-11T00:13:17.261Z,30.10
2022-12-11T00:15:44.393Z,31.73
2022-12-11T00:18:14.932Z,29.65
2022-12-11T00:20:42.502Z,29.45
2022-12-11T00:23:10.966Z,26.58
2022-12-11T00:25:47.011Z,30.38
2022-12-11T00:28:20.595Z,29.38
2022-12-11T00:30:48.565Z,31.23
2022-12-11T00:33:16.960Z,26.48
2022-12-11T00:35:46.870Z,32.38
2022-12-11T00:38:20.134Z,31.20
2022-12-11T00:40:48.339Z,31.58
2022-12-11T00:43:16.145Z,32.78
2022-12-11T00:45:46.056Z,29.35
2022-12-11T00:48:14.022Z,31.77
2022-12-11T00:50:42.704Z,28.98
2022-12-11T00:53:09.952Z,31.25
2022-12-11T00:55:39.754Z,30.98
2022-12-11T00:58:07.608Z,29.90
2022-12-11T01:00:34.865Z,28.45
2022-12-11T01:03:02.289Z,29.52
2022-12-11T01:05:29.496Z,29.25
2022-12-11T01:07:56.843Z,28.38
2022-12-11T01:10:24.202Z,26.65
2022-12-11T01:12:57.357Z,25.20
2022-12-11T01:15:29.112Z,26.63
2022-12-11T01:17:57.371Z,24.08
2022-12-11T01:20:27.446Z,23.80
2022-12-11T01:22:57.868Z,22.40
2022-12-11T01:25:27.277Z,25.10
2022-12-11T01:27:55.899Z,22.30
2022-12-11T01:30:25.734Z,22.15
2022-12-11T01:32:53.085Z,23.92
2022-12-11T01:35:20.765Z,20.25
2022-12-11T01:37:49.134Z,20.08
2022-12-11T01:40:19.138Z,18.83
2022-12-11T01:42:47.136Z,20.70
2022-12-11T01:45:48.688Z,20.95
2022-12-11T01:48:24.580Z,19.60
2022-12-11T01:51:05.238Z,19.33
2022-12-11T01:53:41.077Z,20.50
2022-12-11T01:56:09.097Z,20.25
2022-12-11T01:58:46.911Z,21.30
2022-12-11T02:01:23.029Z,19.75
2022-12-11T02:03:51.096Z,19.30
2022-12-11T02:06:36.669Z,18.20
2022-12-11T02:09:14.211Z,19.52
2022-12-11T02:12:01.319Z,17.63
2022-12-11T02:14:43.515Z,17.88
2022-12-11T02:17:26.444Z,18.08
2022-12-11T02:20:12.216Z,18.13
2022-12-11T02:23:07.024Z,17.95
2022-12-11T02:28:35.662Z,14.60
2022-12-11T02:31:42.588Z,18.98
2022-12-11T02:34:45.290Z,17.85
2022-12-11T02:37:25.241Z,16.80
2022-12-11T02:39:55.272Z,17.92
2022-12-11T02:42:28.233Z,16.90
2022-12-11T02:44:58.604Z,17.77
2022-12-11T02:47:29.681Z,18.23
2022-12-11T02:50:00.587Z,17.52
2022-12-11T02:52:31.227Z,16.67
2022-12-11T02:55:01.579Z,17.35
2022-12-11T02:57:38.430Z,16.98
2022-12-11T03:00:08.668Z,14.63
2022-12-11T03:02:37.473Z,16.08
2022-12-11T03:05:05.655Z,15.13
2022-12-11T03:07:38.024Z,16.58
2022-12-11T03:10:08.611Z,13.90
2022-12-11T03:12:39.464Z,15.20
2022-12-11T03:15:12.254Z,15.40
2022-12-11T03:18:19.078Z,15.95
2022-12-11T03:21:02.400Z,16.80
2022-12-11T03:23:49.046Z,15.93
2022-12-11T03:26:20.229Z,14.43
2022-12-11T03:29:05.451Z,16.38
2022-12-11T03:31:44.528Z,16.73
2022-12-11T03:34:21.025Z,16.38
2022-12-11T03:36:50.805Z,16.90
2022-12-11T03:39:32.398Z,15.45
2022-12-11T03:42:06.679Z,15.20
2022-12-11T03:47:07.363Z,14.18
2022-12-11T03:49:39.537Z,14.60
2022-12-11T03:52:09.740Z,14.07
2022-12-11T03:54:38.646Z,15.15
2022-12-11T03:57:08.645Z,13.00
2022-12-11T03:59:35.865Z,14.48
2022-12-11T04:02:10.883Z,14.48
2022-12-11T04:04:40.842Z,14.30
2022-12-11T04:07:09.541Z,14.00
2022-12-11T04:09:37.555Z,14.23
2022-12-11T04:12:04.995Z,14.70
2022-12-11T04:14:51.464Z,14.02
2022-12-11T04:17:38.898Z,13.30
2022-12-11T04:20:25.556Z,13.88
2022-12-11T04:23:10.953Z,13.68
2022-12-11T04:25:37.960Z,14.07
2022-12-11T04:28:05.200Z,13.93
2022-12-11T04:30:34.297Z,13.88
2022-12-11T04:33:02.506Z,13.93
2022-12-11T04:35:29.818Z,13.73
2022-12-11T04:37:57.618Z,13.07
2022-12-11T04:40:25.070Z,12.60
2022-12-11T04:42:52.104Z,12.70
2022-12-11T04:45:19.292Z,13.63
2022-12-11T04:47:46.391Z,12.60
2022-12-11T04:50:15.093Z,12.80
2022-12-11T04:52:43.181Z,14.10
2022-12-11T04:55:12.037Z,13.27
2022-12-11T04:57:39.540Z,11.82
2022-12-11T05:00:11.790Z,12.13
2022-12-11T05:02:41.827Z,13.65
2022-12-11T05:05:11.166Z,12.25
2022-12-11T05:07:38.961Z,12.73
2022-12-11T05:10:07.549Z,13.02
2022-12-11T05:12:34.663Z,12.32
2022-12-11T05:15:01.750Z,13.20
2022-12-11T05:17:28.905Z,11.82
2022-12-11T05:19:55.996Z,12.90
2022-12-11T05:22:23.059Z,14.35
2022-12-11T05:24:50.148Z,15.35
2022-12-11T05:27:17.242Z,14.02
2022-12-11T05:29:44.282Z,14.70
2022-12-11T05:32:11.349Z,15.10
2022-12-11T05:34:38.443Z,17.52
2022-12-11T05:37:05.794Z,15.05
2022-12-11T05:39:33.003Z,16.60
2022-12-11T05:42:00.421Z,16.67
2022-12-11T05:44:27.812Z,15.55
2022-12-11T05:46:55.106Z,16.27
2022-12-11T05:49:27.328Z,17.42
2022-12-11T05:51:57.659Z,18.10
2022-12-11T05:54:24.755Z,17.13
2022-12-11T05:56:51.904Z,18.60
2022-12-11T05:59:19.891Z,18.38
2022-12-11T06:01:47.515Z,17.67
2022-12-11T06:04:14.892Z,18.50
2022-12-11T06:06:43.987Z,17.70
2022-12-11T06:09:17.067Z,18.45
2022-12-11T06:11:44.376Z,20.02
2022-12-11T06:14:12.449Z,18.23
2022-12-11T06:16:39.799Z,18.63
2022-12-11T06:19:07.782Z,19.67
2022-12-11T06:21:35.052Z,20.98
2022-12-11T06:24:04.456Z,19.20
2022-12-11T06:26:32.608Z,19.38
2022-12-11T06:29:00.459Z,18.70
2022-12-11T06:31:28.248Z,18.63
2022-12-11T06:33:56.060Z,20.02
2022-12-11T06:36:24.831Z,18.48
2022-12-11T06:38:53.173Z,20.48
2022-12-11T06:41:20.610Z,21.23
2022-12-11T06:43:47.903Z,28.50
2022-12-11T06:46:18.685Z,26.58
2022-12-11T06:48:47.521Z,20.75
2022-12-11T06:51:18.667Z,18.70
2022-12-11T06:53:51.243Z,17.92
2022-12-11T06:56:18.383Z,15.82
2022-12-11T06:58:45.711Z,14.80
2022-12-11T07:01:25.637Z,16.23
2022-12-11T07:03:55.166Z,15.30
2022-12-11T07:06:23.982Z,15.15
2022-12-11T07:08:52.322Z,16.58
2022-12-11T07:11:21.223Z,14.90
2022-12-11T07:13:48.666Z,21.23
2022-12-11T07:16:17.668Z,14.60
2022-12-11T07:18:50.611Z,15.05
2022-12-11T07:21:20.471Z,13.77
2022-12-11T07:23:49.068Z,12.55
2022-12-11T07:26:20.100Z,14.13
2022-12-11T07:28:49.186Z,12.68
2022-12-11T07:31:21.793Z,13.52
2022-12-11T07:34:02.755Z,13.25
2022-12-11T07:36:31.121Z,12.73
2022-12-11T07:39:00.827Z,13.23
2022-12-11T07:41:28.963Z,12.40
2022-12-11T07:43:56.649Z,12.10
2022-12-11T07:46:27.622Z,11.88
2022-12-11T07:48:55.141Z,10.40
2022-12-11T07:51:29.318Z,11.90
2022-12-11T07:56:33.199Z,11.98
2022-12-11T07:59:02.769Z,12.93
2022-12-11T08:01:35.739Z,11.88
2022-12-11T08:04:06.669Z,12.48
2022-12-11T08:06:37.644Z,13.00
2022-12-11T08:09:11.961Z,12.80
2022-12-11T08:11:42.281Z,12.38
2022-12-11T08:14:09.805Z,12.57
2022-12-11T08:16:37.061Z,12.18
2022-12-11T08:19:04.456Z,12.45
2022-12-11T08:21:32.174Z,12.48
2022-12-11T08:23:59.326Z,11.63
2022-12-11T08:26:31.473Z,20.05
2022-12-11T08:28:59.948Z,11.90
2022-12-11T08:31:27.790Z,12.48
2022-12-11T08:33:57.602Z,12.25
2022-12-11T08:36:26.392Z,12.82
2022-12-11T08:38:56.348Z,12.02
2022-12-11T08:41:30.692Z,12.30
2022-12-11T08:44:00.383Z,12.10
2022-12-11T08:46:32.327Z,11.25
2022-12-11T08:49:00.373Z,12.43
2022-12-11T08:51:30.503Z,13.02
2022-12-11T08:54:01.025Z,12.30
2022-12-11T08:56:29.793Z,12.90
2022-12-11T08:59:01.199Z,12.43
2022-12-11T09:01:28.984Z,12.48
2022-12-11T09:03:57.216Z,14.95
2022-12-11T09:06:27.940Z,14.80
2022-12-11T09:08:56.594Z,13.98
2022-12-11T09:11:28.499Z,13.05
2022-12-11T09:13:56.554Z,12.30
2022-12-11T09:16:25.980Z,12.02
2022-12-11T09:18:57.253Z,11.82
2022-12-11T09:21:28.148Z,11.02
2022-12-11T09:23:58.646Z,11.80
2022-12-11T09:26:28.653Z,11.55
2022-12-11T09:28:56.666Z,12.82
2022-12-11T09:31:28.073Z,11.95
2022-12-11T09:34:00.307Z,12.18
2022-12-11T09:36:28.380Z,11.68
2022-12-11T09:38:55.846Z,11.82
2022-12-11T09:41:23.333Z,10.65
2022-12-11T09:44:05.755Z,10.52
2022-12-11T09:46:35.377Z,11.70
2022-12-11T09:49:05.256Z,11.57
2022-12-11T09:51:42.766Z,11.50
2022-12-11T09:54:13.750Z,11.73
2022-12-11T09:57:08.114Z,11.63
2022-12-11T10:00:04.816Z,11.57
2022-12-11T10:03:05.037Z,11.85
2022-12-11T10:06:16.012Z,11.20
2022-12-11T10:08:43.373Z,12.13
2022-12-11T10:11:48.289Z,12.93
2022-12-11T10:15:12.562Z,10.60
2022-12-11T10:17:42.272Z,11.18
2022-12-11T10:20:37.115Z,10.98
2022-12-11T10:23:09.187Z,10.57
2022-12-11T10:25:43.711Z,11.27
2022-12-11T10:28:14.421Z,10.75
2022-12-11T10:31:20.367Z,11.60
2022-12-11T10:34:02.916Z,10.15
2022-12-11T10:36:42.725Z,11.20
2022-12-11T10:39:20.944Z,11.18
2022-12-11T10:41:54.061Z,11.40
2022-12-11T10:44:29.793Z,10.48
2022-12-11T10:47:15.144Z,9.32
2022-12-11T10:50:00.532Z,10.93
2022-12-11T10:52:33.563Z,9.55
2022-12-11T10:55:07.171Z,9.13
2022-12-11T10:57:37.718Z,10.05
2022-12-11T11:00:43.900Z,8.48
2022-12-11T11:03:27.262Z,8.25
2022-12-11T11:06:17.447Z,8.15
2022-12-11T11:09:12.958Z,8.57
2022-12-11T11:11:40.087Z,8.10
2022-12-11T11:14:09.954Z,7.13
2022-12-11T11:16:40.525Z,7.22
2022-12-11T11:19:08.066Z,6.43
2022-12-11T11:21:36.033Z,6.35
2022-12-11T11:24:04.159Z,5.03
2022-12-11T11:27:04.400Z,3.15
2022-12-11T11:29:34.781Z,4.07
2022-12-11T11:32:17.607Z,3.75
2022-12-11T11:34:44.709Z,3.30
2022-12-11T11:37:33.009Z,4.15
2022-12-11T11:40:14.806Z,3.83
2022-12-11T11:43:22.729Z,4.03
2022-12-11T11:46:03.180Z,2.63
2022-12-11T11:48:48.525Z,1.27
2022-12-11T11:51:30.900Z,0.60
2022-12-11T11:54:03.633Z,0.65
2022-12-11T11:56:38.053Z,0.90
2022-12-11T11:59:31.230Z,0.40
2022-12-11T12:01:59.179Z,0.60
2022-12-11T12:04:34.450Z,0.40
2022-12-11T12:07:07.637Z,0.30
2022-12-11T12:09:40.746Z,0.47
2022-12-11T12:13:24.107Z,0.45
2022-12-11T12:16:01.742Z,0.40
2022-12-11T12:18:49.462Z,0.93
2022-12-11T12:21:37.698Z,1.83
2022-12-11T12:24:23.731Z,0.85
2022-12-11T12:27:51.042Z,0.50
2022-12-11T12:30:22.476Z,0.55
2022-12-11T12:33:34.585Z,0.80
2022-12-11T12:36:23.613Z,0.95
2022-12-11T12:38:59.445Z,1.45
2022-12-11T12:41:45.289Z,0.75
2022-12-11T12:44:22.622Z,1.05
2022-12-11T12:46:52.096Z,0.68
2022-12-11T12:49:43.761Z,0.70
2022-12-11T12:52:21.814Z,0.50
2022-12-11T12:55:11.933Z,0.47
2022-12-11T12:57:44.952Z,0.60
2022-12-11T13:00:13.835Z,0.40
2022-12-11T13:02:51.039Z,0.40
2022-12-11T13:05:33.814Z,0.40
2022-12-11T13:08:05.547Z,0.20
2022-12-11T13:10:40.728Z,0.50
2022-12-11T13:13:39.492Z,0.40
2022-12-11T13:16:27.328Z,0.85
2022-12-11T13:18:55.174Z,0.68
2022-12-11T13:21:38.342Z,1.50
2022-12-11T13:24:21.719Z,2.05
2022-12-11T13:26:50.564Z,1.80
2022-12-11T13:29:37.558Z,3.03
2022-12-11T13:32:11.234Z,2.25
2022-12-11T13:34:43.202Z,1.10
2022-12-11T13:37:35.265Z,1.38
2022-12-11T13:40:19.376Z,1.52
2022-12-11T13:43:09.072Z,1.00
2022-12-11T13:45:49.805Z,0.60
2022-12-11T13:48:36.242Z,0.73
2022-12-11T13:51:05.258Z,0.63
2022-12-11T13:53:32.891Z,0.32
2022-12-11T13:56:05.294Z,0.20
2022-12-11T13:58:46.940Z,0.30
2022-12-11T14:01:22.473Z,0.43
2022-12-11T14:04:02.057Z,0.10
2022-12-11T14:06:30.914Z,0.30
2022-12-11T14:09:01.196Z,0.40
2022-12-11T14:11:41.813Z,0.15
2022-12-11T14:14:20.759Z,0.20
2022-12-11T14:16:50.983Z,0.20
2022-12-11T14:19:22.137Z,0.30
2022-12-11T14:22:07.991Z,0.20
2022-12-11T14:24:35.163Z,0.35
2022-12-11T14:27:04.787Z,0.50
2022-12-11T14:29:34.146Z,0.30
2022-12-11T14:32:07.307Z,0.60
2022-12-11T14:34:39.043Z,0.50
2022-12-11T14:37:08.185Z,0.30
2022-12-11T14:39:42.125Z,0.70
2022-12-11T14:42:19.793Z,0.73
2022-12-11T14:45:01.807Z,0.80
2022-12-11T14:47:37.755Z,0.45
2022-12-11T14:50:24.247Z,0.55
2022-12-11T14:53:00.613Z,0.70
2022-12-11T14:55:33.206Z,0.50
2022-12-11T14:58:07.806Z,0.50
2022-12-11T15:00:37.626Z,0.57
2022-12-11T15:03:23.870Z,0.65
2022-12-11T15:05:54.499Z,0.63
2022-12-11T15:08:40.656Z,0.75
2022-12-11T15:11:14.791Z,0.65
2022-12-11T15:13:58.868Z,1.13
2022-12-11T15:16:28.738Z,0.60
2022-12-11T15:18:56.904Z,0.90
2022-12-11T15:21:34.380Z,0.77
2022-12-11T15:24:07.089Z,0.90
2022-12-11T15:26:39.344Z,0.90
2022-12-11T15:29:35.543Z,1.90
2022-12-11T15:32:10.107Z,1.10
2022-12-11T15:34:58.064Z,1.27
2022-12-11T15:37:31.880Z,1.23
2022-12-11T15:40:01.831Z,2.00
2022-12-11T15:42:40.881Z,2.30
2022-12-11T15:45:16.662Z,1.13
2022-12-11T15:47:44.329Z,0.75
2022-12-11T15:50:17.288Z,0.88
2022-12-11T15:52:45.446Z,0.68
2022-12-11T15:55:13.186Z,1.00
2022-12-11T15:57:47.999Z,1.27
2022-12-11T16:00:19.367Z,1.00
2022-12-11T16:02:47.432Z,1.10
2022-12-11T16:05:15.105Z,0.80
2022-12-11T16:07:42.675Z,1.17
2022-12-11T16:10:17.616Z,1.02
2022-12-11T16:12:45.655Z,1.10
2022-12-11T16:15:21.508Z,2.17
2022-12-11T16:17:50.669Z,1.58
2022-12-11T16:20:18.818Z,1.67
2022-12-11T16:22:45.998Z,2.50
2022-12-11T16:25:13.291Z,2.55
2022-12-11T16:27:40.545Z,3.22
2022-12-11T16:30:08.596Z,3.30
2022-12-11T16:32:35.647Z,4.40
2022-12-11T16:35:02.747Z,5.13
2022-12-11T16:37:29.808Z,6.03
2022-12-11T16:39:56.989Z,5.60
2022-12-11T16:42:24.071Z,5.70
2022-12-11T16:44:51.221Z,6.10
2022-12-11T16:47:18.257Z,6.03
2022-12-11T16:49:45.264Z,8.23
2022-12-11T16:52:13.627Z,7.88
2022-12-11T16:54:42.433Z,8.00
2022-12-11T16:57:09.677Z,6.22
2022-12-11T16:59:37.618Z,7.93
2022-12-11T17:02:05.442Z,8.05
2022-12-11T17:04:32.744Z,9.07
2022-12-11T17:07:00.046Z,7.55
2022-12-11T17:09:27.287Z,7.35
2022-12-11T17:11:54.510Z,8.15
2022-12-11T17:14:21.737Z,6.85
2022-12-11T17:16:48.838Z,7.40
2022-12-11T17:19:16.841Z,7.35
2022-12-11T17:21:48.428Z,8.82
2022-12-11T17:24:18.234Z,7.15
2022-12-11T17:26:45.351Z,7.80
2022-12-11T17:29:14.162Z,9.52
2022-12-11T17:31:41.358Z,9.38
2022-12-11T17:34:08.557Z,16.27
2022-12-11T17:36:35.607Z,20.07
2022-12-11T17:39:04.025Z,14.40
2022-12-11T17:41:32.207Z,11.77
2022-12-11T17:44:02.408Z,10.90
2022-12-11T17:46:29.731Z,10.65
2022-12-11T17:48:59.456Z,10.82
2022-12-11T17:51:26.783Z,10.13
2022-12-11T17:53:56.207Z,9.38
2022-12-11T17:56:24.176Z,11.38
2022-12-11T17:58:51.610Z,11.00
2022-12-11T18:01:19.191Z,9.73
2022-12-11T18:03:47.140Z,9.65
2022-12-11T18:06:15.965Z,10.73
2022-12-11T18:08:45.794Z,11.32
2022-12-11T18:11:17.323Z,13.55
2022-12-11T18:13:45.824Z,13.05
2022-12-11T18:16:30.701Z,13.98
2022-12-11T18:19:01.840Z,14.48
2022-12-11T18:21:36.004Z,16.42
2022-12-11T18:24:03.220Z,15.32
2022-12-11T18:26:30.331Z,14.27
2022-12-11T18:28:57.544Z,15.18
2022-12-11T18:31:25.234Z,14.05
2022-12-11T18:33:52.856Z,9.65
2022-12-11T18:36:21.077Z,12.38
2022-12-11T18:38:49.185Z,11.88
2022-12-11T18:41:19.355Z,12.68
2022-12-11T18:43:47.164Z,12.85
2022-12-11T18:46:18.018Z,22.08
2022-12-11T18:48:49.383Z,18.77
2022-12-11T18:51:25.121Z,23.50
2022-12-11T18:53:52.712Z,22.98
2022-12-11T18:56:21.109Z,20.85
2022-12-11T18:58:53.772Z,18.00
2022-12-11T19:01:25.243Z,16.42
2022-12-11T19:04:03.527Z,13.70
2022-12-11T19:06:35.532Z,11.85
2022-12-11T19:09:09.738Z,11.40
2022-12-11T19:11:41.039Z,9.40
2022-12-11T19:14:09.915Z,9.27
2022-12-11T19:16:42.801Z,6.45
2022-12-11T19:21:43.364Z,7.18
2022-12-11T19:24:16.888Z,7.95
2022-12-11T19:26:44.248Z,9.88
2022-12-11T19:29:27.320Z,7.40
2022-12-11T19:31:55.883Z,7.90
2022-12-11T19:34:23.875Z,10.93
2022-12-11T19:36:51.460Z,7.20
2022-12-11T19:39:19.787Z,9.27
2022-12-11T19:41:47.090Z,7.97
2022-12-11T19:44:14.152Z,10.45
2022-12-11T19:46:41.902Z,12.50
2022-12-11T19:49:12.002Z,13.48
2022-12-11T19:51:41.453Z,14.18
2022-12-11T19:54:12.791Z,13.57
2022-12-11T19:56:41.023Z,15.63
2022-12-11T19:59:15.862Z,13.30
2022-12-11T20:01:48.561Z,12.32
2022-12-11T20:04:17.333Z,10.98
2022-12-11T20:06:47.064Z,9.45
2022-12-11T20:09:15.698Z,9.18
2022-12-11T20:11:45.312Z,8.95
2022-12-11T20:14:28.634Z,10.48
2022-12-11T20:17:13.998Z,9.68
2022-12-11T20:19:42.189Z,9.02
2022-12-11T20:22:10.363Z,9.95
2022-12-11T20:24:38.410Z,9.68
2022-12-11T20:27:05.837Z,9.05
2022-12-11T20:29:32.852Z,8.75
2022-12-11T20:32:00.520Z,7.90
2022-12-11T20:34:28.267Z,8.25
2022-12-11T20:36:56.301Z,9.82
2022-12-11T20:39:24.429Z,8.07
2022-12-11T20:41:56.794Z,9.37
2022-12-11T20:44:23.880Z,10.65
2022-12-11T20:46:50.967Z,9.60
2022-12-11T20:49:17.930Z,9.00
2022-12-11T20:51:45.604Z,8.00
2022-12-11T20:54:12.642Z,8.15
2022-12-11T20:56:39.591Z,8.32
2022-12-11T20:59:06.856Z,8.52
2022-12-11T21:01:35.108Z,8.77
2022-12-11T21:04:02.364Z,8.48
2022-12-11T21:06:33.765Z,9.70
2022-12-11T21:09:08.224Z,9.15
2022-12-11T21:11:35.579Z,10.10
2022-12-11T21:14:03.426Z,10.75
2022-12-11T21:16:30.844Z,10.73
2022-12-11T21:18:58.992Z,11.65
2022-12-11T21:21:26.315Z,10.50
2022-12-11T21:23:53.298Z,9.90
2022-12-11T21:26:20.568Z,10.32
2022-12-11T21:28:47.554Z,10.27
2022-12-11T21:31:18.692Z,10.80
2022-12-11T21:33:46.090Z,11.77
2022-12-11T21:36:14.885Z,11.38
2022-12-11T21:38:43.950Z,10.55
2022-12-11T21:41:15.732Z,11.60
2022-12-11T21:44:14.692Z,15.38
2022-12-11T21:46:31.994Z,15.80
2022-12-11T21:49:00.009Z,15.98
2022-12-11T21:51:38.622Z,14.95
2022-12-11T21:54:13.127Z,16.73
2022-12-11T21:56:41.056Z,19.73
2022-12-11T21:59:08.144Z,19.15
2022-12-11T22:01:40.961Z,19.45
2022-12-11T22:04:10.914Z,20.33
2022-12-11T22:06:38.555Z,21.23
2022-12-11T22:09:06.091Z,23.85
2022-12-11T22:11:34.618Z,24.95
2022-12-11T22:14:03.934Z,25.08
2022-12-11T22:16:31.581Z,23.50
2022-12-11T22:18:59.105Z,22.25
2022-12-11T22:21:26.824Z,21.17
2022-12-11T22:23:54.528Z,23.17
2022-12-11T22:26:25.867Z,24.10
2022-12-11T22:28:54.429Z,23.20
2022-12-11T22:31:25.158Z,26.40
2022-12-11T22:33:54.826Z,25.13
2022-12-11T22:36:25.234Z,23.05
2022-12-11T22:38:53.611Z,24.60
2022-12-11T22:41:24.755Z,22.33
2022-12-11T22:43:54.273Z,26.58
2022-12-11T22:46:25.174Z,27.85
2022-12-11T22:48:52.868Z,28.25
2022-12-11T22:51:20.467Z,29.55
2022-12-11T22:53:47.784Z,28.55
2022-12-11T22:56:20.470Z,27.90
2022-12-11T22:58:51.883Z,30.07
2022-12-11T23:01:27.730Z,29.13
2022-12-11T23:04:04.354Z,27.95
2022-12-11T23:06:42.060Z,30.77
2022-12-11T23:09:17.812Z,30.30
2022-12-11T23:11:51.742Z,31.50
2022-12-11T23:14:22.128Z,28.98
2022-12-11T23:16:49.306Z,31.30
2022-12-11T23:19:20.869Z,32.00
2022-12-11T23:21:53.067Z,33.13
2022-12-11T23:24:20.263Z,34.10
2022-12-11T23:26:48.198Z,38.75
2022-12-11T23:29:15.344Z,37.00
2022-12-11T23:31:42.887Z,37.90
2022-12-11T23:34:10.500Z,38.20
2022-12-11T23:36:38.479Z,38.85
2022-12-11T23:39:05.711Z,40.58
2022-12-11T23:41:32.643Z,37.70
2022-12-11T23:44:00.032Z,37.47
2022-12-11T23:46:27.642Z,34.50
2022-12-11T23:48:55.903Z,35.28
2022-12-11T23:51:25.463Z,34.97
2022-12-11T23:53:52.932Z,35.80
2022-12-11T23:56:26.050Z,35.92
2022-12-11T23:58:53.396Z,34.25
